createdAt,value
2023-04-26T00:00:01.581Z,2.33
2023-04-26T00:02:30.947Z,5.78
2023-04-26T00:05:02.143Z,2.28
2023-04-26T00:07:32.453Z,2.03
2023-04-26T00:10:00.508Z,3.80
2023-04-26T00:12:30.733Z,2.55
2023-04-26T00:14:58.644Z,5.68
2023-04-26T00:17:26.563Z,2.85
2023-04-26T00:20:02.323Z,5.60
2023-04-26T00:22:30.326Z,3.95
2023-04-26T00:24:58.269Z,2.65
2023-04-26T00:27:26.188Z,2.63
2023-04-26T00:29:54.223Z,3.03
2023-04-26T00:32:22.773Z,5.60
2023-04-26T00:34:50.718Z,2.40
2023-04-26T00:37:21.292Z,3.00
2023-04-26T00:39:49.168Z,2.58
2023-04-26T00:42:17.115Z,4.25
2023-04-26T00:44:45.059Z,2.17
2023-04-26T00:47:14.277Z,2.50
2023-04-26T00:49:42.815Z,5.75
2023-04-26T00:52:11.521Z,2.65
2023-04-26T00:54:41.271Z,2.30
2023-04-26T00:57:10.699Z,2.47
2023-04-26T00:59:38.913Z,2.40
2023-04-26T01:02:12.681Z,2.15
2023-04-26T01:04:41.843Z,2.05
2023-04-26T01:07:11.857Z,3.05
2023-04-26T01:09:42.115Z,4.30
2023-04-26T01:12:10.908Z,4.10
2023-04-26T01:14:41.964Z,3.47
2023-04-26T01:17:09.883Z,2.65
2023-04-26T01:19:40.766Z,3.53
2023-04-26T01:22:09.160Z,2.95
2023-04-26T01:24:39.260Z,5.15
2023-04-26T01:27:07.994Z,2.28
2023-04-26T01:29:40.706Z,3.85
2023-04-26T01:32:08.666Z,2.10
2023-04-26T01:34:37.251Z,2.97
2023-04-26T01:37:05.218Z,2.42
2023-04-26T01:39:33.101Z,8.15
2023-04-26T01:42:02.857Z,5.68
2023-04-26T01:44:33.282Z,3.40
2023-04-26T01:47:02.689Z,2.60
2023-04-26T01:49:30.719Z,2.28
2023-04-26T01:51:58.639Z,2.42
2023-04-26T01:54:26.626Z,2.55
2023-04-26T01:56:54.608Z,2.20
2023-04-26T01:59:23.904Z,1.80
2023-04-26T02:01:52.042Z,1.90
2023-04-26T02:04:20.111Z,2.22
2023-04-26T02:06:48.039Z,2.50
2023-04-26T02:09:18.127Z,3.10
2023-04-26T02:11:48.411Z,2.78
2023-04-26T02:14:19.044Z,1.73
2023-04-26T02:16:48.298Z,2.47
2023-04-26T02:19:16.263Z,2.08
2023-04-26T02:21:55.117Z,2.03
2023-04-26T02:24:23.911Z,3.78
2023-04-26T02:26:52.924Z,2.10
2023-04-26T02:29:36.388Z,2.40
2023-04-26T02:32:16.742Z,2.92
2023-04-26T02:34:45.397Z,1.90
2023-04-26T02:37:13.335Z,2.10
2023-04-26T02:39:41.253Z,3.15
2023-04-26T02:42:11.039Z,2.53
2023-04-26T02:44:40.019Z,2.83
2023-04-26T02:47:08.603Z,2.50
2023-04-26T02:49:38.318Z,2.20
2023-04-26T02:52:06.449Z,2.53
2023-04-26T02:54:34.572Z,2.67
2023-04-26T02:57:02.475Z,2.55
2023-04-26T02:59:30.535Z,2.25
2023-04-26T03:01:58.459Z,2.15
2023-04-26T03:04:26.430Z,2.67
2023-04-26T03:06:55.841Z,2.10
2023-04-26T03:09:23.876Z,2.40
2023-04-26T03:11:53.311Z,2.40
2023-04-26T03:14:22.531Z,3.00
2023-04-26T03:16:51.205Z,3.67
2023-04-26T03:19:19.154Z,3.60
2023-04-26T03:21:47.935Z,3.35
2023-04-26T03:24:17.576Z,2.63
2023-04-26T03:26:46.432Z,2.20
2023-04-26T03:29:14.954Z,1.90
2023-04-26T03:31:42.991Z,3.08
2023-04-26T03:34:11.490Z,2.90
2023-04-26T03:36:39.856Z,3.08
2023-04-26T03:39:11.439Z,2.60
2023-04-26T03:41:41.060Z,3.72
2023-04-26T03:44:12.336Z,2.47
2023-04-26T03:46:40.845Z,3.17
2023-04-26T03:49:08.862Z,4.75
2023-04-26T03:51:36.809Z,3.35
2023-04-26T03:54:05.284Z,4.40
2023-04-26T03:56:33.260Z,2.10
2023-04-26T03:59:02.519Z,3.65
2023-04-26T04:01:30.466Z,2.20
2023-04-26T04:03:58.754Z,3.38
2023-04-26T04:06:26.967Z,2.85
2023-04-26T04:08:55.286Z,2.00
2023-04-26T04:11:24.216Z,3.65
2023-04-26T04:13:52.420Z,3.28
2023-04-26T04:16:21.989Z,3.70
2023-04-26T04:18:52.895Z,2.17
2023-04-26T04:21:21.331Z,2.72
2023-04-26T04:23:50.082Z,3.03
2023-04-26T04:26:19.101Z,1.98
2023-04-26T04:28:47.080Z,3.30
2023-04-26T04:31:17.891Z,3.45
2023-04-26T04:33:47.452Z,2.00
2023-04-26T04:36:16.825Z,2.20
2023-04-26T04:38:46.197Z,3.28
2023-04-26T04:41:16.649Z,2.28
2023-04-26T04:43:45.598Z,2.00
2023-04-26T04:46:13.602Z,2.50
2023-04-26T04:48:41.726Z,1.95
2023-04-26T04:51:11.069Z,1.95
2023-04-26T04:53:39.061Z,2.33
2023-04-26T04:56:07.686Z,2.70
2023-04-26T04:58:36.126Z,2.40
2023-04-26T05:01:04.248Z,1.80
2023-04-26T05:03:43.042Z,2.30
2023-04-26T05:06:12.330Z,2.03
2023-04-26T05:08:40.857Z,4.18
2023-04-26T05:11:12.584Z,2.00
2023-04-26T05:13:40.585Z,1.85
2023-04-26T05:16:08.924Z,2.20
2023-04-26T05:18:37.559Z,2.78
2023-04-26T05:21:06.486Z,2.42
2023-04-26T05:23:36.042Z,14.18
2023-04-26T05:26:06.011Z,3.00
2023-04-26T05:29:02.903Z,2.10
2023-04-26T05:31:38.150Z,2.05
2023-04-26T05:34:14.650Z,3.50
2023-04-26T05:36:42.807Z,2.20
2023-04-26T05:39:12.987Z,2.20
2023-04-26T05:41:40.956Z,3.13
2023-04-26T05:44:10.869Z,5.00
2023-04-26T05:46:39.248Z,3.63
2023-04-26T05:49:09.258Z,3.33
2023-04-26T05:51:37.300Z,2.35
2023-04-26T05:54:07.691Z,2.40
2023-04-26T05:56:38.366Z,3.28
2023-04-26T05:59:08.436Z,1.75
2023-04-26T06:01:36.892Z,2.03
2023-04-26T06:04:13.157Z,1.98
2023-04-26T06:06:51.274Z,3.53
2023-04-26T06:09:20.207Z,1.98
2023-04-26T06:11:50.425Z,7.45
2023-04-26T06:14:29.508Z,2.40
2023-04-26T06:16:59.858Z,2.10
2023-04-26T06:19:29.208Z,3.13
2023-04-26T06:21:57.515Z,2.10
2023-04-26T06:24:26.002Z,2.10
2023-04-26T06:26:57.156Z,3.95
2023-04-26T06:29:25.411Z,2.10
2023-04-26T06:31:53.388Z,1.70
2023-04-26T06:34:23.845Z,2.22
2023-04-26T06:36:51.854Z,6.63
2023-04-26T06:39:20.743Z,2.00
2023-04-26T06:44:28.912Z,2.70
2023-04-26T06:47:03.456Z,2.08
2023-04-26T06:49:33.167Z,2.85
2023-04-26T06:52:01.368Z,4.10
2023-04-26T06:54:30.372Z,1.90
2023-04-26T06:56:59.455Z,2.00
2023-04-26T06:59:30.600Z,1.95
2023-04-26T07:01:58.527Z,1.75
2023-04-26T07:04:26.713Z,7.25
2023-04-26T07:06:54.772Z,1.88
2023-04-26T07:09:23.705Z,2.08
2023-04-26T07:11:51.655Z,2.00
2023-04-26T07:14:19.543Z,3.40
2023-04-26T07:16:48.804Z,1.80
2023-04-26T07:19:16.722Z,1.67
2023-04-26T07:21:44.595Z,2.20
2023-04-26T07:24:13.589Z,2.22
2023-04-26T07:26:41.869Z,4.95
2023-04-26T07:29:10.480Z,2.13
2023-04-26T07:31:38.393Z,1.80
2023-04-26T07:34:07.637Z,3.05
2023-04-26T07:36:38.510Z,2.40
2023-04-26T07:39:06.692Z,1.90
2023-04-26T07:41:34.557Z,3.83
2023-04-26T07:44:02.469Z,7.10
2023-04-26T07:46:30.322Z,2.42
2023-04-26T07:48:58.236Z,5.32
2023-04-26T07:51:27.898Z,6.47
2023-04-26T07:53:56.425Z,2.65
2023-04-26T07:56:25.009Z,2.10
2023-04-26T07:58:53.113Z,1.77
2023-04-26T08:01:21.832Z,5.57
2023-04-26T08:03:50.132Z,1.60
2023-04-26T08:06:18.386Z,1.60
2023-04-26T08:08:50.785Z,2.30
2023-04-26T08:11:18.984Z,2.42
2023-04-26T08:13:47.402Z,1.85
2023-04-26T08:16:15.509Z,1.90
2023-04-26T08:18:46.069Z,1.80
2023-04-26T08:21:14.821Z,2.45
2023-04-26T08:23:42.759Z,2.53
2023-04-26T08:26:11.960Z,1.80
2023-04-26T08:28:39.878Z,1.75
2023-04-26T08:31:07.845Z,2.13
2023-04-26T08:33:35.781Z,5.85
2023-04-26T08:36:04.926Z,2.67
2023-04-26T08:38:33.285Z,2.80
2023-04-26T08:41:02.727Z,1.70
2023-04-26T08:43:38.103Z,1.60
2023-04-26T08:46:11.928Z,3.05
2023-04-26T08:48:39.818Z,3.20
2023-04-26T08:51:11.443Z,2.13
2023-04-26T08:53:41.634Z,2.00
2023-04-26T08:56:11.333Z,1.55
2023-04-26T08:58:40.676Z,2.33
2023-04-26T09:01:10.299Z,2.40
2023-04-26T09:03:38.424Z,1.95
2023-04-26T09:06:10.542Z,1.80
2023-04-26T09:08:42.624Z,2.08
2023-04-26T09:11:10.606Z,8.93
2023-04-26T09:13:39.866Z,2.75
2023-04-26T09:16:08.657Z,1.67
2023-04-26T09:18:36.666Z,1.92
2023-04-26T09:21:06.805Z,1.70
2023-04-26T09:23:57.413Z,2.22
2023-04-26T09:26:26.224Z,1.70
2023-04-26T09:29:12.711Z,1.60
2023-04-26T09:31:42.269Z,2.78
2023-04-26T09:34:11.801Z,2.00
2023-04-26T09:36:50.759Z,6.43
2023-04-26T09:39:35.413Z,1.70
2023-04-26T09:42:05.052Z,2.30
2023-04-26T09:44:34.917Z,1.60
2023-04-26T09:47:07.292Z,2.55
2023-04-26T09:49:46.597Z,2.60
2023-04-26T09:52:14.515Z,3.40
2023-04-26T09:54:45.087Z,8.52
2023-04-26T09:57:14.052Z,2.25
2023-04-26T09:59:47.615Z,5.00
2023-04-26T10:02:19.082Z,3.58
2023-04-26T10:04:49.546Z,2.00
2023-04-26T10:07:18.423Z,1.85
2023-04-26T10:09:47.732Z,1.77
2023-04-26T10:12:17.764Z,4.45
2023-04-26T10:14:47.755Z,2.20
2023-04-26T10:17:15.866Z,2.88
2023-04-26T10:19:45.189Z,2.55
2023-04-26T10:22:29.685Z,3.35
2023-04-26T10:24:57.626Z,2.90
2023-04-26T10:27:52.955Z,1.85
2023-04-26T10:30:24.158Z,1.98
2023-04-26T10:33:16.172Z,1.60
2023-04-26T10:36:05.698Z,1.70
2023-04-26T10:38:34.698Z,2.35
2023-04-26T10:41:34.597Z,2.90
2023-04-26T10:44:39.306Z,4.78
2023-04-26T10:47:09.331Z,2.58
2023-04-26T10:49:48.369Z,2.05
2023-04-26T10:52:17.391Z,2.13
2023-04-26T10:54:49.691Z,2.58
2023-04-26T10:57:18.050Z,1.73
2023-04-26T11:00:23.743Z,4.45
2023-04-26T11:02:58.910Z,2.05
2023-04-26T11:05:51.826Z,3.55
2023-04-26T11:08:20.988Z,4.22
2023-04-26T11:10:58.423Z,1.80
2023-04-26T11:13:26.693Z,1.80
2023-04-26T11:15:55.435Z,1.65
2023-04-26T11:18:24.895Z,4.78
2023-04-26T11:20:53.123Z,1.70
2023-04-26T11:23:21.164Z,1.80
2023-04-26T11:25:49.578Z,3.22
2023-04-26T11:28:19.453Z,3.13
2023-04-26T11:30:47.616Z,1.60
2023-04-26T11:33:19.751Z,2.50
2023-04-26T11:35:49.737Z,2.38
2023-04-26T11:38:18.082Z,2.83
2023-04-26T11:40:54.026Z,8.23
2023-04-26T11:43:21.962Z,13.75
2023-04-26T11:45:49.888Z,1.77
2023-04-26T11:48:17.984Z,2.55
2023-04-26T11:50:48.605Z,2.40
2023-04-26T11:53:17.384Z,2.22
2023-04-26T11:55:46.249Z,8.48
2023-04-26T11:58:15.509Z,3.78
2023-04-26T12:00:59.765Z,1.77
2023-04-26T12:03:32.313Z,11.63
2023-04-26T12:06:02.121Z,1.60
2023-04-26T12:08:30.024Z,12.60
2023-04-26T12:11:00.964Z,1.90
2023-04-26T12:13:29.812Z,2.33
2023-04-26T12:15:57.921Z,3.20
2023-04-26T12:18:32.409Z,6.38
2023-04-26T12:21:02.287Z,2.22
2023-04-26T12:23:39.215Z,2.83
2023-04-26T12:26:10.566Z,1.50
2023-04-26T12:28:41.347Z,1.98
2023-04-26T12:31:09.797Z,7.88
2023-04-26T12:33:38.017Z,5.10
2023-04-26T12:36:12.377Z,2.55
2023-04-26T12:38:40.837Z,2.35
2023-04-26T12:41:08.818Z,3.10
2023-04-26T12:43:36.859Z,1.85
2023-04-26T12:46:05.340Z,2.10
2023-04-26T12:48:33.385Z,1.70
2023-04-26T12:51:01.319Z,2.80
2023-04-26T12:53:30.694Z,2.70
2023-04-26T12:55:58.732Z,2.20
2023-04-26T12:58:26.828Z,1.80
2023-04-26T13:00:54.813Z,2.50
2023-04-26T13:03:22.840Z,2.08
2023-04-26T13:05:51.727Z,2.83
2023-04-26T13:08:22.595Z,2.10
2023-04-26T13:10:52.217Z,5.60
2023-04-26T13:13:22.066Z,2.05
2023-04-26T13:15:54.523Z,2.50
2023-04-26T13:18:22.474Z,1.83
2023-04-26T13:20:50.447Z,6.68
2023-04-26T13:23:18.386Z,1.70
2023-04-26T13:25:46.567Z,2.28
2023-04-26T13:28:16.134Z,2.20
2023-04-26T13:30:45.680Z,2.20
2023-04-26T13:33:13.874Z,3.40
2023-04-26T13:35:41.784Z,1.98
2023-04-26T13:38:09.652Z,1.70
2023-04-26T13:40:38.699Z,2.05
2023-04-26T13:43:06.613Z,5.28
2023-04-26T13:45:36.051Z,1.80
2023-04-26T13:48:04.050Z,2.13
2023-04-26T13:50:33.544Z,2.30
2023-04-26T13:53:01.622Z,2.30
2023-04-26T13:55:30.714Z,2.13
2023-04-26T13:57:58.649Z,1.88
2023-04-26T14:00:29.335Z,1.70
2023-04-26T14:02:58.857Z,2.25
2023-04-26T14:05:27.809Z,2.35
2023-04-26T14:07:55.775Z,2.28
2023-04-26T14:10:23.794Z,1.90
2023-04-26T14:12:51.994Z,6.03
2023-04-26T14:15:19.928Z,1.65
2023-04-26T14:17:50.845Z,2.17
2023-04-26T14:20:20.319Z,2.00
2023-04-26T14:22:50.087Z,2.47
2023-04-26T14:25:18.915Z,1.92
2023-04-26T14:27:46.905Z,3.25
2023-04-26T14:30:15.534Z,2.13
2023-04-26T14:32:43.573Z,2.00
2023-04-26T14:35:11.566Z,2.30
2023-04-26T14:37:40.788Z,3.63
2023-04-26T14:40:13.166Z,2.10
2023-04-26T14:42:46.091Z,1.48
2023-04-26T14:45:16.646Z,2.63
2023-04-26T14:47:44.607Z,1.70
2023-04-26T14:50:14.059Z,3.35
2023-04-26T14:52:43.352Z,2.63
2023-04-26T14:55:11.493Z,1.80
2023-04-26T14:57:42.321Z,1.73
2023-04-26T15:00:16.369Z,2.15
2023-04-26T15:02:47.467Z,1.80
2023-04-26T15:05:15.566Z,1.58
2023-04-26T15:07:44.901Z,2.20
2023-04-26T15:10:15.357Z,4.10
2023-04-26T15:12:43.251Z,1.88
2023-04-26T15:15:11.911Z,1.92
2023-04-26T15:17:39.852Z,2.53
2023-04-26T15:20:10.115Z,1.75
2023-04-26T15:22:39.757Z,2.67
2023-04-26T15:25:11.105Z,4.72
2023-04-26T15:27:45.763Z,2.58
2023-04-26T15:30:14.327Z,2.75
2023-04-26T15:32:47.900Z,1.83
2023-04-26T15:35:16.707Z,1.70
2023-04-26T15:37:45.423Z,2.80
2023-04-26T15:40:15.121Z,1.77
2023-04-26T15:42:45.821Z,1.52
2023-04-26T15:45:13.731Z,2.58
2023-04-26T15:47:41.748Z,2.92
2023-04-26T15:50:12.234Z,2.88
2023-04-26T15:52:40.738Z,7.93
2023-04-26T15:55:09.390Z,2.10
2023-04-26T15:57:50.277Z,2.42
2023-04-26T16:00:18.906Z,1.80
2023-04-26T16:02:47.166Z,2.65
2023-04-26T16:05:15.381Z,2.10
2023-04-26T16:07:43.543Z,1.92
2023-04-26T16:10:12.060Z,1.75
2023-04-26T16:12:41.669Z,2.20
2023-04-26T16:15:11.935Z,4.55
2023-04-26T16:17:40.172Z,3.42
2023-04-26T16:20:11.608Z,2.47
2023-04-26T16:22:39.495Z,2.45
2023-04-26T16:25:08.442Z,2.70
2023-04-26T16:27:36.674Z,2.40
2023-04-26T16:30:12.940Z,12.45
2023-04-26T16:32:40.959Z,1.50
2023-04-26T16:35:09.882Z,1.88
2023-04-26T16:37:41.792Z,7.28
2023-04-26T16:40:11.336Z,3.65
2023-04-26T16:42:43.095Z,2.60
2023-04-26T16:45:16.143Z,3.05
2023-04-26T16:47:44.760Z,3.15
2023-04-26T16:50:12.760Z,2.15
2023-04-26T16:52:40.843Z,1.90
2023-04-26T16:55:09.346Z,1.70
2023-04-26T16:57:37.302Z,5.65
2023-04-26T17:00:07.937Z,2.30
2023-04-26T17:02:42.739Z,2.40
2023-04-26T17:05:14.597Z,1.80
2023-04-26T17:07:45.242Z,1.80
2023-04-26T17:10:15.605Z,1.80
2023-04-26T17:12:43.506Z,2.40
2023-04-26T17:15:12.748Z,2.20
2023-04-26T17:17:44.206Z,1.60
2023-04-26T17:20:13.481Z,1.60
2023-04-26T17:22:41.642Z,2.00
2023-04-26T17:25:10.415Z,1.70
2023-04-26T17:27:43.777Z,3.70
2023-04-26T17:30:12.535Z,1.90
2023-04-26T17:32:41.882Z,2.15
2023-04-26T17:35:12.768Z,5.50
2023-04-26T17:37:46.112Z,5.63
2023-04-26T17:40:14.221Z,8.00
2023-04-26T17:42:42.178Z,2.75
2023-04-26T17:45:13.378Z,10.25
2023-04-26T17:47:45.317Z,14.43
2023-04-26T17:50:13.362Z,11.93
2023-04-26T17:52:44.066Z,29.00
2023-04-26T17:55:16.418Z,22.45
2023-04-26T17:57:44.497Z,36.13
2023-04-26T18:00:13.757Z,31.77
2023-04-26T18:02:45.469Z,15.23
2023-04-26T18:05:13.728Z,37.63
2023-04-26T18:07:44.983Z,33.67
2023-04-26T18:10:12.888Z,34.25
2023-04-26T18:12:40.806Z,33.95
2023-04-26T18:15:11.645Z,34.95
2023-04-26T18:17:39.628Z,26.50
2023-04-26T18:20:11.169Z,34.55
2023-04-26T18:22:39.126Z,31.95
2023-04-26T18:25:07.689Z,32.20
2023-04-26T18:27:35.766Z,36.05
2023-04-26T18:30:04.810Z,36.83
2023-04-26T18:32:32.923Z,28.77
2023-04-26T18:35:01.061Z,42.97
2023-04-26T18:37:30.385Z,23.52
2023-04-26T18:39:58.366Z,21.10
2023-04-26T18:42:26.360Z,25.08
2023-04-26T18:44:54.289Z,26.27
2023-04-26T18:47:22.181Z,24.10
2023-04-26T18:49:53.487Z,30.65
2023-04-26T18:52:21.465Z,37.15
2023-04-26T18:54:50.794Z,18.50
2023-04-26T18:57:22.173Z,23.13
2023-04-26T18:59:52.947Z,28.73
2023-04-26T19:02:21.465Z,19.13
2023-04-26T19:04:50.573Z,25.70
2023-04-26T19:07:18.843Z,29.95
2023-04-26T19:09:54.210Z,13.35
2023-04-26T19:12:24.514Z,19.98
2023-04-26T19:14:52.416Z,20.00
2023-04-26T19:17:20.787Z,33.53
2023-04-26T19:19:51.589Z,22.58
2023-04-26T19:22:19.879Z,25.30
2023-04-26T19:24:49.897Z,27.73
2023-04-26T19:27:21.981Z,29.23
2023-04-26T19:29:51.215Z,29.75
2023-04-26T19:32:22.738Z,17.92
2023-04-26T19:34:50.897Z,24.60
2023-04-26T19:37:18.845Z,14.25
2023-04-26T19:39:46.765Z,12.75
2023-04-26T19:42:15.685Z,15.57
2023-04-26T19:44:43.584Z,21.20
2023-04-26T19:47:16.551Z,14.05
2023-04-26T19:49:47.813Z,19.83
2023-04-26T19:52:16.162Z,14.05
2023-04-26T19:54:44.057Z,26.88
2023-04-26T19:57:11.999Z,11.70
2023-04-26T19:59:39.885Z,10.85
2023-04-26T20:02:08.015Z,23.60
2023-04-26T20:04:37.295Z,21.48
2023-04-26T20:07:06.572Z,15.55
2023-04-26T20:09:34.619Z,13.38
2023-04-26T20:12:02.901Z,18.52
2023-04-26T20:14:31.531Z,19.45
2023-04-26T20:17:02.569Z,17.73
2023-04-26T20:19:30.744Z,23.48
2023-04-26T20:22:02.736Z,9.90
2023-04-26T20:24:36.791Z,12.40
2023-04-26T20:27:04.751Z,9.65
2023-04-26T20:29:32.602Z,27.38
2023-04-26T20:32:00.623Z,10.82
2023-04-26T20:34:35.170Z,20.85
2023-04-26T20:37:04.481Z,17.27
2023-04-26T20:39:34.603Z,19.38
2023-04-26T20:42:03.498Z,11.70
2023-04-26T20:44:31.823Z,10.13
2023-04-26T20:46:59.754Z,11.50
2023-04-26T20:49:28.271Z,8.63
2023-04-26T20:51:56.187Z,12.43
2023-04-26T20:54:26.167Z,8.80
2023-04-26T20:56:54.143Z,10.88
2023-04-26T20:59:23.508Z,7.88
2023-04-26T21:01:53.723Z,24.35
2023-04-26T21:04:22.364Z,27.42
2023-04-26T21:06:52.648Z,17.13
2023-04-26T21:09:25.368Z,14.15
2023-04-26T21:11:53.269Z,17.30
2023-04-26T21:14:21.345Z,7.43
2023-04-26T21:16:49.197Z,9.30
2023-04-26T21:19:17.129Z,8.70
2023-04-26T21:21:45.027Z,10.55
2023-04-26T21:24:13.037Z,10.68
2023-04-26T21:26:42.279Z,10.88
2023-04-26T21:29:10.450Z,6.53
2023-04-26T21:31:38.518Z,10.18
2023-04-26T21:34:06.548Z,9.02
2023-04-26T21:36:34.521Z,8.75
2023-04-26T21:39:03.508Z,9.50
2023-04-26T21:41:31.379Z,14.18
2023-04-26T21:44:00.742Z,9.73
2023-04-26T21:46:28.764Z,9.45
2023-04-26T21:48:56.724Z,7.25
2023-04-26T21:51:24.726Z,6.82
2023-04-26T21:53:52.645Z,21.55
2023-04-26T21:56:20.740Z,8.20
2023-04-26T21:58:48.623Z,9.98
2023-04-26T22:01:18.113Z,11.02
2023-04-26T22:03:46.173Z,22.90
2023-04-26T22:06:14.355Z,5.93
2023-04-26T22:08:42.213Z,4.60
2023-04-26T22:11:10.237Z,9.38
2023-04-26T22:13:38.178Z,8.63
2023-04-26T22:16:06.845Z,6.80
2023-04-26T22:18:36.187Z,7.18
2023-04-26T22:21:04.241Z,7.57
2023-04-26T22:23:32.091Z,11.13
2023-04-26T22:26:00.627Z,8.68
2023-04-26T22:28:28.613Z,7.93
2023-04-26T22:30:56.588Z,5.10
2023-04-26T22:33:24.526Z,11.57
2023-04-26T22:35:57.734Z,11.20
2023-04-26T22:38:26.008Z,11.10
2023-04-26T22:40:54.068Z,6.38
2023-04-26T22:43:23.178Z,5.57
2023-04-26T22:45:51.251Z,7.57
2023-04-26T22:48:22.056Z,6.70
2023-04-26T22:50:54.223Z,6.00
2023-04-26T22:53:27.758Z,7.18
2023-04-26T22:55:58.696Z,8.73
2023-04-26T22:58:26.682Z,5.68
2023-04-26T23:00:54.626Z,6.20
2023-04-26T23:03:22.622Z,7.05
2023-04-26T23:05:50.705Z,4.90
2023-04-26T23:08:19.978Z,5.00
2023-04-26T23:10:47.893Z,5.53
2023-04-26T23:13:16.165Z,6.85
2023-04-26T23:15:44.153Z,7.93
2023-04-26T23:18:12.138Z,9.63
2023-04-26T23:20:45.333Z,4.35
2023-04-26T23:23:13.242Z,4.15
2023-04-26T23:25:42.454Z,112.72
2023-04-26T23:28:10.377Z,5.88
2023-04-26T23:30:38.281Z,6.15
2023-04-26T23:33:06.574Z,6.78
2023-04-26T23:35:34.557Z,4.88
2023-04-26T23:38:02.427Z,6.38
2023-04-26T23:40:30.319Z,11.48
2023-04-26T23:42:59.579Z,6.00
2023-04-26T23:45:28.511Z,5.68
2023-04-26T23:47:56.571Z,4.32
2023-04-26T23:50:24.556Z,10.45
2023-04-26T23:52:52.475Z,13.10
2023-04-26T23:55:20.418Z,4.72
2023-04-26T23:57:48.336Z,5.38
